createdAt,value
2023-06-15T00:01:08.198Z,98504.66
2023-06-15T00:03:36.578Z,98508.56
2023-06-15T00:06:04.668Z,98508.13
2023-06-15T00:08:32.545Z,98514.53
2023-06-15T00:11:00.495Z,98501.59
2023-06-15T00:13:28.718Z,98504.69
2023-06-15T00:15:56.680Z,98499.31
2023-06-15T00:18:24.865Z,98500.41
2023-06-15T00:20:52.836Z,98506.06
2023-06-15T00:23:27.657Z,98499.69
2023-06-15T00:25:56.699Z,98511.81
2023-06-15T00:28:24.712Z,98498.84
2023-06-15T00:30:52.582Z,98518.16
2023-06-15T00:33:20.595Z,98509.34
2023-06-15T00:35:51.191Z,98501.72
2023-06-15T00:38:19.761Z,98510.44
2023-06-15T00:40:49.167Z,98508.38
2023-06-15T00:43:20.135Z,98509.00
2023-06-15T00:45:48.199Z,98504.63
2023-06-15T00:48:16.453Z,98506.47
2023-06-15T00:50:44.843Z,98502.44
2023-06-15T00:53:13.625Z,98503.88
2023-06-15T00:55:43.182Z,98503.53
2023-06-15T00:58:11.413Z,98504.72
2023-06-15T01:00:39.590Z,98504.19
2023-06-15T01:03:08.081Z,98496.31
2023-06-15T01:05:36.594Z,98490.94
2023-06-15T01:08:06.365Z,98491.16
2023-06-15T01:10:37.130Z,98493.94
2023-06-15T01:13:08.829Z,98495.06
2023-06-15T01:15:36.956Z,98493.72
2023-06-15T01:18:06.259Z,98493.91
2023-06-15T01:20:41.092Z,98501.84
2023-06-15T01:24:04.467Z,98495.50
2023-06-15T01:26:34.662Z,98500.81
2023-06-15T01:29:04.881Z,98502.47
2023-06-15T01:31:34.049Z,98500.63
2023-06-15T01:34:02.141Z,98493.41
2023-06-15T01:36:30.159Z,98495.41
2023-06-15T01:38:59.397Z,98491.97
2023-06-15T01:41:28.143Z,98490.63
2023-06-15T01:43:57.950Z,98490.66
2023-06-15T01:46:27.611Z,98499.41
2023-06-15T01:48:56.697Z,98495.50
2023-06-15T01:51:27.503Z,98500.22
2023-06-15T01:53:55.781Z,98497.19
2023-06-15T01:56:24.808Z,98498.06
2023-06-15T01:58:52.732Z,98491.44
2023-06-15T02:01:21.143Z,98493.84
2023-06-15T02:03:49.171Z,98494.84
2023-06-15T02:06:17.075Z,98496.69
2023-06-15T02:08:45.044Z,98498.03
2023-06-15T02:11:13.086Z,98504.38
2023-06-15T02:13:41.059Z,98509.06
2023-06-15T02:16:09.323Z,98506.75
2023-06-15T02:18:38.649Z,98497.22
2023-06-15T02:21:06.698Z,98509.84
2023-06-15T02:23:35.420Z,98495.25
2023-06-15T02:26:03.475Z,98507.22
2023-06-15T02:28:32.910Z,98504.69
2023-06-15T02:31:00.899Z,98501.66
2023-06-15T02:33:32.582Z,98506.06
2023-06-15T02:36:00.889Z,98508.44
2023-06-15T02:38:28.834Z,98505.75
2023-06-15T02:40:56.780Z,98503.47
2023-06-15T02:43:24.745Z,98506.22
2023-06-15T02:45:52.732Z,98506.25
2023-06-15T02:48:21.340Z,98505.19
2023-06-15T02:50:49.503Z,98510.75
2023-06-15T02:53:22.235Z,98510.47
2023-06-15T02:55:55.279Z,98511.22
2023-06-15T02:58:25.579Z,98508.16
2023-06-15T03:00:54.794Z,98514.31
2023-06-15T03:03:30.963Z,98524.75
2023-06-15T03:06:02.077Z,98518.56
2023-06-15T03:08:35.101Z,98526.97
2023-06-15T03:11:15.643Z,98523.81
2023-06-15T03:13:43.640Z,98526.63
2023-06-15T03:16:17.157Z,98531.09
2023-06-15T03:18:48.792Z,98539.31
2023-06-15T03:21:16.800Z,98539.22
2023-06-15T03:23:45.936Z,98539.31
2023-06-15T03:26:15.063Z,98533.69
2023-06-15T03:28:43.420Z,98544.22
2023-06-15T03:31:18.456Z,98542.78
2023-06-15T03:33:47.497Z,98547.41
2023-06-15T03:36:17.633Z,98545.88
2023-06-15T03:38:47.197Z,98553.88
2023-06-15T03:41:15.458Z,98553.09
2023-06-15T03:43:43.476Z,98557.09
2023-06-15T03:46:11.518Z,98558.94
2023-06-15T03:48:39.508Z,98561.09
2023-06-15T03:51:07.948Z,98555.69
2023-06-15T03:53:37.532Z,98564.72
2023-06-15T03:56:05.618Z,98568.25
2023-06-15T03:58:33.858Z,98568.25
2023-06-15T04:01:02.634Z,98558.66
2023-06-15T04:03:30.946Z,98571.06
2023-06-15T04:05:59.091Z,98565.06
2023-06-15T04:08:28.065Z,98578.06
2023-06-15T04:10:58.127Z,98583.94
2023-06-15T04:13:26.259Z,98585.69
2023-06-15T04:15:54.996Z,98587.06
2023-06-15T04:18:23.963Z,98585.31
2023-06-15T04:20:52.895Z,98587.25
2023-06-15T04:23:21.490Z,98592.41
2023-06-15T04:25:50.779Z,98597.19
2023-06-15T04:28:18.868Z,98592.28
2023-06-15T04:30:56.244Z,98602.97
2023-06-15T04:33:24.563Z,98604.59
2023-06-15T04:35:53.641Z,98597.53
2023-06-15T04:38:22.025Z,98602.47
2023-06-15T04:40:53.641Z,98608.00
2023-06-15T04:43:21.940Z,98606.75
2023-06-15T04:45:50.369Z,98606.69
2023-06-15T04:48:22.093Z,98610.41
2023-06-15T04:50:50.331Z,98611.06
2023-06-15T04:53:19.612Z,98608.53
2023-06-15T04:55:50.102Z,98601.94
2023-06-15T04:58:21.672Z,98604.66
2023-06-15T05:00:50.778Z,98608.72
2023-06-15T05:03:20.242Z,98611.75
2023-06-15T05:05:48.351Z,98617.13
2023-06-15T05:08:16.740Z,98620.75
2023-06-15T05:10:46.930Z,98617.03
2023-06-15T05:13:20.108Z,98611.47
2023-06-15T05:15:48.194Z,98623.09
2023-06-15T05:18:18.217Z,98622.44
2023-06-15T05:20:46.488Z,98624.88
2023-06-15T05:23:14.652Z,98628.03
2023-06-15T05:25:44.485Z,98632.19
2023-06-15T05:28:12.847Z,98633.16
2023-06-15T05:30:41.917Z,98637.81
2023-06-15T05:33:10.733Z,98629.16
2023-06-15T05:35:39.198Z,98632.56
2023-06-15T05:38:07.289Z,98640.16
2023-06-15T05:40:39.025Z,98641.91
2023-06-15T05:43:07.490Z,98639.84
2023-06-15T05:45:40.399Z,98643.03
2023-06-15T05:48:09.516Z,98648.75
2023-06-15T05:50:38.317Z,98648.41
2023-06-15T05:53:07.077Z,98649.56
2023-06-15T05:55:35.203Z,98654.31
2023-06-15T05:58:03.584Z,98648.34
2023-06-15T06:00:33.044Z,98652.72
2023-06-15T06:03:02.644Z,98656.75
2023-06-15T06:05:45.010Z,98657.22
2023-06-15T06:08:13.023Z,98654.91
2023-06-15T06:10:41.563Z,98654.94
2023-06-15T06:13:27.934Z,98660.50
2023-06-15T06:15:56.323Z,98662.00
2023-06-15T06:18:24.403Z,98664.09
2023-06-15T06:20:52.558Z,98667.31
2023-06-15T06:23:20.529Z,98669.72
2023-06-15T06:25:48.486Z,98677.97
2023-06-15T06:28:16.780Z,98676.09
2023-06-15T06:30:45.132Z,98665.03
2023-06-15T06:33:13.158Z,98665.91
2023-06-15T06:35:41.161Z,98672.28
2023-06-15T06:38:09.098Z,98675.00
2023-06-15T06:40:37.053Z,98666.41
2023-06-15T06:43:05.031Z,98675.47
2023-06-15T06:45:33.018Z,98666.75
2023-06-15T06:48:01.034Z,98656.88
2023-06-15T06:50:29.022Z,98676.22
2023-06-15T06:52:57.313Z,98669.19
2023-06-15T06:55:25.259Z,98676.41
2023-06-15T06:57:53.541Z,98671.25
2023-06-15T07:00:21.730Z,98666.16
2023-06-15T07:02:49.744Z,98656.97
2023-06-15T07:05:17.993Z,98669.41
2023-06-15T07:07:46.161Z,98667.03
2023-06-15T07:14:21.420Z,98665.16
2023-06-15T07:16:49.430Z,98680.69
2023-06-15T07:19:17.386Z,98669.28
2023-06-15T07:21:45.418Z,98674.06
2023-06-15T07:24:13.432Z,98656.94
2023-06-15T07:26:41.599Z,98670.91
2023-06-15T07:29:09.538Z,98668.94
2023-06-15T07:31:37.573Z,98665.38
2023-06-15T07:34:05.520Z,98670.56
2023-06-15T07:36:33.443Z,98673.47
2023-06-15T07:39:01.598Z,98671.50
2023-06-15T07:41:29.636Z,98662.81
2023-06-15T07:43:57.596Z,98668.38
2023-06-15T07:46:25.563Z,98663.66
2023-06-15T07:48:53.473Z,98658.56
2023-06-15T07:51:32.797Z,98659.09
2023-06-15T07:54:06.296Z,98656.69
2023-06-15T07:56:34.333Z,98654.69
2023-06-15T07:59:02.314Z,98659.09
2023-06-15T08:01:30.317Z,98662.75
2023-06-15T08:03:58.192Z,98656.81
2023-06-15T08:06:26.815Z,98653.63
2023-06-15T08:08:54.980Z,98654.97
2023-06-15T08:11:22.998Z,98660.63
2023-06-15T08:13:50.940Z,98655.41
2023-06-15T11:44:27.903Z,98569.00
2023-06-15T11:46:59.036Z,98577.00
2023-06-15T11:49:33.678Z,98572.97
2023-06-15T11:52:01.964Z,98581.38
2023-06-15T11:54:44.949Z,98573.88
2023-06-15T11:57:17.915Z,98579.81
2023-06-15T11:59:46.332Z,98577.44
2023-06-15T12:02:16.701Z,98572.13
2023-06-15T12:04:47.754Z,98569.00
2023-06-15T12:07:32.001Z,98567.09
2023-06-15T12:10:04.671Z,98561.50
2023-06-15T12:12:34.728Z,98560.66
2023-06-15T12:15:04.346Z,98571.84
2023-06-15T12:17:34.909Z,98559.09
2023-06-15T12:20:10.992Z,98554.69
2023-06-15T12:22:45.951Z,98563.53
2023-06-15T12:25:15.794Z,98561.50
2023-06-15T12:27:46.902Z,98552.38
2023-06-15T12:30:17.623Z,98547.94
2023-06-15T12:32:48.124Z,98550.19
2023-06-15T12:35:45.376Z,98553.09
2023-06-15T12:38:13.346Z,98552.31
2023-06-15T12:40:42.900Z,98549.16
2023-06-15T12:43:10.782Z,98545.53
2023-06-15T12:45:38.736Z,98546.69
2023-06-15T12:48:07.765Z,98547.78
2023-06-15T12:50:35.687Z,98544.56
2023-06-15T12:53:04.142Z,98533.25
2023-06-15T12:55:32.381Z,98538.69
2023-06-15T12:58:00.527Z,98538.66
2023-06-15T13:00:30.097Z,98548.59
2023-06-15T13:03:00.586Z,98531.44
2023-06-15T13:05:29.612Z,98538.38
2023-06-15T13:07:57.911Z,98540.66
2023-06-15T13:10:26.110Z,98529.91
2023-06-15T13:12:54.271Z,98527.69
2023-06-15T13:15:22.640Z,98533.72
2023-06-15T13:17:51.078Z,98531.75
2023-06-15T13:20:20.360Z,98535.81
2023-06-15T13:22:51.833Z,98522.44
2023-06-15T13:25:22.996Z,98534.81
2023-06-15T13:27:51.168Z,98525.56
2023-06-15T13:30:19.550Z,98527.25
2023-06-15T13:32:48.215Z,98523.63
2023-06-15T13:35:18.140Z,98524.88
2023-06-15T13:37:47.369Z,98521.81
2023-06-15T13:40:15.901Z,98527.28
2023-06-15T13:42:44.219Z,98520.91
2023-06-15T13:45:15.097Z,98518.53
2023-06-15T13:47:43.732Z,98530.34
2023-06-15T13:50:14.115Z,98516.94
2023-06-15T13:52:44.091Z,98518.28
2023-06-15T13:55:12.478Z,98519.16
2023-06-15T13:57:40.437Z,98518.41
2023-06-15T14:00:09.148Z,98524.00
2023-06-15T14:02:44.487Z,98519.63
2023-06-15T14:05:14.515Z,98517.16
2023-06-15T14:07:43.069Z,98514.72
2023-06-15T14:10:11.430Z,98516.66
2023-06-15T14:12:39.982Z,98514.59
2023-06-15T14:15:10.532Z,98512.84
2023-06-15T14:17:39.581Z,98507.50
2023-06-15T14:20:09.717Z,98510.25
2023-06-15T14:22:37.788Z,98503.97
2023-06-15T14:25:06.485Z,98489.69
2023-06-15T14:27:34.374Z,98503.59
2023-06-15T14:30:03.185Z,98495.59
2023-06-15T14:32:31.342Z,98496.09
2023-06-15T14:34:59.496Z,98502.00
2023-06-15T14:37:27.747Z,98494.78
2023-06-15T14:39:55.744Z,98496.53
2023-06-15T14:42:25.769Z,98496.09
2023-06-15T14:44:55.538Z,98498.47
2023-06-15T14:47:23.568Z,98493.72
2023-06-15T14:49:51.558Z,98485.00
2023-06-15T14:52:19.695Z,98496.69
2023-06-15T14:54:47.606Z,98489.00
2023-06-15T14:57:15.821Z,98491.75
2023-06-15T14:59:43.798Z,98490.59
2023-06-15T15:02:11.715Z,98493.53
2023-06-15T15:04:39.900Z,98487.78
2023-06-15T15:07:07.894Z,98486.63
2023-06-15T15:09:35.806Z,98481.88
2023-06-15T15:12:04.211Z,98479.47
2023-06-15T15:14:32.167Z,98483.81
2023-06-15T15:17:00.264Z,98479.41
2023-06-15T15:19:28.306Z,98481.84
2023-06-15T15:21:56.245Z,98484.25
2023-06-15T15:24:24.655Z,98483.09
2023-06-15T15:26:52.557Z,98473.50
2023-06-15T15:29:20.537Z,98479.09
2023-06-15T15:31:48.542Z,98476.31
2023-06-15T15:34:16.601Z,98481.13
2023-06-15T15:36:45.983Z,98484.31
2023-06-15T15:39:13.928Z,98473.50
2023-06-15T15:41:43.166Z,98475.94
2023-06-15T15:44:11.138Z,98471.16
2023-06-15T15:46:39.221Z,98468.03
2023-06-15T15:49:07.454Z,98474.75
2023-06-15T15:51:36.643Z,98478.28
2023-06-15T15:54:04.550Z,98464.25
2023-06-15T15:56:32.458Z,98475.50
2023-06-15T15:59:00.704Z,98471.44
2023-06-15T16:01:28.772Z,98471.97
